Montreal, Quebec

6:16 PM EST on November 28, 2014 (GMT -0500)
Montreal | Change Station
CLOSE
Current Station
Airport
Location: Montreal,
Elevation: 118 ft
Nearby Weather Stations

Elev 118 ft 45.47 °N, 73.74 °W | Updated 1 hour ago

Mostly Cloudy
Mostly Cloudy
23 °F
Feels Like 10 °F
N
15
Wind Variable Wind from West
Gusts 23 mph

Tomorrow is forecast to be nearly the same temperature as today.

Today
High -- | Low -- °F
--% Chance of Precip.
Yesterday
High -- | Low -- °F
Precip. -- in
7:10 AM 4:14 PM
Waxing Crescent, 45% visible
Pressure 30.16 in
Visibility 15.0 miles
Clouds Few 2500 ft
Mostly Cloudy 4000 ft
Mostly Cloudy 12000 ft
Windchill 10 °F
Dew Point 12 °F
Humidity 63%
Rainfall 0.00 in
Snow Depth Not available.
UV 0 out of 12
Pollen Not available.
Air Quality Not available.
Flu Activity Not available.
METAR CYUL 282200Z 26013G20KT 15SM FEW025 BKN040 BKN120 M05/M11 A3015 RMK SC1SC5AC1 SC TR SLP212

More Conditions Fewer Conditions

Pressure 30.16 in
Visibility 15.0 miles
Clouds Few 2500 ft
Mostly Cloudy 4000 ft
Mostly Cloudy 12000 ft
Windchill 10 °F
Dew Point 12 °F
Humidity 63%
Rainfall 0.00 in
Snow Depth Not available.
UV 0 out of 12
Pollen Not available.
Air Quality Not available.
Flu Activity Not available.
METAR CYUL 282200Z 26013G20KT 15SM FEW025 BKN040 BKN120 M05/M11 A3015 RMK SC1SC5AC1 SC TR SLP212

More Conditions Fewer Conditions

10-Day Weather Forecast

Almanac

Astronomy

Nov. 28, 2014 Rise Set
Actual Time
Civil Twilight
Nautical Twilight
Astronomical Twilight
Moon
Length of Visible Light
Length of Day
Tomorrow will be .
, % of the Moon is Illuminated

Today's Extremes

Country Highs Country Lows

Community

WunderPhotos

Upload Photos

1,774,331 photos uploaded!

WunderBlogs® & News

Nearby

Air Quality

  Air Quality AQ Index Pollutant
Not available.

Snow Depth

Station Depth Elevation

Earthquake Activity

City Distance Mag. Time & Date
Minimum magnitude displayed is 2.5.

Coastal Water Temperatures

Place Temperature

Nearby Weather Stations